sensor_id;sensor_type;location;lat;lon;timestamp;pressure;altitude;pressure_sealevel;temperature;humidity
40596;BME280;26304;48.794;9.820;2022-11-09T00:01:32;95993.78;;;17.10;54.05
40596;BME280;26304;48.794;9.820;2022-11-09T00:07:16;95996.03;;;17.08;54.27
40596;BME280;26304;48.794;9.820;2022-11-09T00:12:59;95991.16;;;17.06;54.38
40596;BME280;26304;48.794;9.820;2022-11-09T00:18:41;95991.16;;;17.06;54.44
40596;BME280;26304;48.794;9.820;2022-11-09T00:24:28;95994.16;;;17.05;54.57
40596;BME280;26304;48.794;9.820;2022-11-09T00:30:11;95996.03;;;17.04;54.42
40596;BME280;26304;48.794;9.820;2022-11-09T00:35:54;96002.78;;;17.05;54.08
40596;BME280;26304;48.794;9.820;2022-11-09T00:41:37;95998.28;;;17.02;53.98
40596;BME280;26304;48.794;9.820;2022-11-09T00:47:20;95975.75;;;17.01;54.62
40596;BME280;26304;48.794;9.820;2022-11-09T00:53:02;95973.88;;;17.02;53.96
40596;BME280;26304;48.794;9.820;2022-11-09T00:58:46;95979.50;;;17.00;54.47
40596;BME280;26304;48.794;9.820;2022-11-09T01:04:28;95986.63;;;17.00;54.37
40596;BME280;26304;48.794;9.820;2022-11-09T01:10:11;95992.25;;;16.98;54.43
40596;BME280;26304;48.794;9.820;2022-11-09T01:15:55;95988.50;;;16.99;54.33
40596;BME280;26304;48.794;9.820;2022-11-09T01:21:37;95991.88;;;16.96;54.33
40596;BME280;26304;48.794;9.820;2022-11-09T01:27:19;95996.75;;;16.98;54.12
40596;BME280;26304;48.794;9.820;2022-11-09T01:33:03;95991.09;;;16.96;54.19
40596;BME280;26304;48.794;9.820;2022-11-09T01:38:46;95978.38;;;16.98;54.47
40596;BME280;26304;48.794;9.820;2022-11-09T01:44:29;95982.84;;;16.97;54.30
40596;BME280;26304;48.794;9.820;2022-11-09T01:50:15;95980.59;;;16.96;54.16
40596;BME280;26304;48.794;9.820;2022-11-09T01:56:01;95982.47;;;16.95;54.59
40596;BME280;26304;48.794;9.820;2022-11-09T02:01:44;95980.97;;;16.94;54.61
40596;BME280;26304;48.794;9.820;2022-11-09T02:07:29;95971.63;;;17.04;54.21
40596;BME280;26304;48.794;9.820;2022-11-09T02:13:12;95972.72;;;16.92;54.32
40596;BME280;26304;48.794;9.820;2022-11-09T02:18:57;95958.06;;;16.91;54.29
40596;BME280;26304;48.794;9.820;2022-11-09T02:24:42;95954.34;;;16.92;54.69
40596;BME280;26304;48.794;9.820;2022-11-09T02:30:24;95950.56;;;16.89;54.62
40596;BME280;26304;48.794;9.820;2022-11-09T02:36:07;95943.81;;;16.88;54.79
40596;BME280;26304;48.794;9.820;2022-11-09T02:41:54;95948.69;;;16.90;54.52
40596;BME280;26304;48.794;9.820;2022-11-09T02:47:40;95942.69;;;16.89;54.44
40596;BME280;26304;48.794;9.820;2022-11-09T02:53:22;95938.94;;;16.87;54.74
40596;BME280;26304;48.794;9.820;2022-11-09T02:59:06;95950.94;;;16.88;54.81
40596;BME280;26304;48.794;9.820;2022-11-09T03:04:49;95947.94;;;16.86;54.59
40596;BME280;26304;48.794;9.820;2022-11-09T03:10:31;95963.69;;;16.89;54.87
40596;BME280;26304;48.794;9.820;2022-11-09T03:16:15;95970.41;;;16.83;54.64
40596;BME280;26304;48.794;9.820;2022-11-09T03:21:57;95957.25;;;16.80;54.88
40596;BME280;26304;48.794;9.820;2022-11-09T03:27:40;95957.28;;;16.83;54.73
40596;BME280;26304;48.794;9.820;2022-11-09T03:33:23;95974.19;;;16.86;54.81
40596;BME280;26304;48.794;9.820;2022-11-09T03:39:06;95972.31;;;16.86;54.53
40596;BME280;26304;48.794;9.820;2022-11-09T03:44:48;95988.41;;;16.85;54.49
40596;BME280;26304;48.794;9.820;2022-11-09T03:50:33;96004.91;;;16.82;55.13
40596;BME280;26304;48.794;9.820;2022-11-09T03:56:16;96016.50;;;16.77;55.05
40596;BME280;26304;48.794;9.820;2022-11-09T04:01:58;96025.47;;;16.73;54.45
40596;BME280;26304;48.794;9.820;2022-11-09T04:07:47;96031.81;;;16.71;54.25
40596;BME280;26304;48.794;9.820;2022-11-09T04:13:29;96044.94;;;16.71;54.63
40596;BME280;26304;48.794;9.820;2022-11-09T04:19:12;96056.97;;;16.73;54.89
40596;BME280;26304;48.794;9.820;2022-11-09T04:24:55;96060.31;;;16.73;54.35
40596;BME280;26304;48.794;9.820;2022-11-09T04:30:38;96070.09;;;16.73;54.83
40596;BME280;26304;48.794;9.820;2022-11-09T04:36:21;96070.47;;;16.75;54.88
40596;BME280;26304;48.794;9.820;2022-11-09T04:42:05;96066.72;;;16.76;54.77
40596;BME280;26304;48.794;9.820;2022-11-09T04:47:47;96065.97;;;16.75;54.63
40596;BME280;26304;48.794;9.820;2022-11-09T04:53:30;96087.31;;;16.74;55.43
40596;BME280;26304;48.794;9.820;2022-11-09T04:59:14;96110.19;;;16.73;55.43
40596;BME280;26304;48.794;9.820;2022-11-09T05:04:56;96088.06;;;16.70;55.91
40596;BME280;26304;48.794;9.820;2022-11-09T05:10:38;96102.22;;;16.62;56.30
40596;BME280;26304;48.794;9.820;2022-11-09T05:16:22;96092.88;;;16.61;56.09
40596;BME280;26304;48.794;9.820;2022-11-09T05:22:05;96096.63;;;16.64;56.44
40596;BME280;26304;48.794;9.820;2022-11-09T05:28:01;96100.03;;;16.64;56.63
40596;BME280;26304;48.794;9.820;2022-11-09T05:33:47;96088.03;;;16.67;57.50
40596;BME280;26304;48.794;9.820;2022-11-09T05:39:29;96089.94;;;16.74;56.23
40596;BME280;26304;48.794;9.820;2022-11-09T05:45:14;96088.81;;;16.71;56.47
40596;BME280;26304;48.794;9.820;2022-11-09T05:51:00;96080.94;;;16.71;56.72
40596;BME280;26304;48.794;9.820;2022-11-09T05:56:43;96077.59;;;16.74;56.71
40596;BME280;26304;48.794;9.820;2022-11-09T06:02:29;96069.34;;;16.76;56.45
40596;BME280;26304;48.794;9.820;2022-11-09T06:08:14;96062.59;;;16.78;56.34
40596;BME280;26304;48.794;9.820;2022-11-09T06:13:56;96054.72;;;16.78;56.62
40596;BME280;26304;48.794;9.820;2022-11-09T06:19:39;96049.84;;;16.77;56.91
40596;BME280;26304;48.794;9.820;2022-11-09T06:25:23;96067.13;;;16.81;56.70
40596;BME280;26304;48.794;9.820;2022-11-09T06:31:07;96074.25;;;16.81;56.87
40596;BME280;26304;48.794;9.820;2022-11-09T06:36:51;96075.38;;;16.80;56.42
40596;BME280;26304;48.794;9.820;2022-11-09T06:42:35;96081.75;;;16.82;56.92
40596;BME280;26304;48.794;9.820;2022-11-09T06:48:18;96082.50;;;16.83;56.44
40596;BME280;26304;48.794;9.820;2022-11-09T06:54:00;96082.91;;;16.85;57.12
40596;BME280;26304;48.794;9.820;2022-11-09T06:59:44;96078.91;;;16.98;57.05
40596;BME280;26304;48.794;9.820;2022-11-09T07:05:26;96093.56;;;17.06;57.65
40596;BME280;26304;48.794;9.820;2022-11-09T07:11:10;96096.50;;;16.94;57.78
40596;BME280;26304;48.794;9.820;2022-11-09T07:16:55;96104.38;;;16.94;57.46
40596;BME280;26304;48.794;9.820;2022-11-09T07:22:37;96101.34;;;16.88;57.92
40596;BME280;26304;48.794;9.820;2022-11-09T07:28:20;96099.44;;;16.85;57.46
40596;BME280;26304;48.794;9.820;2022-11-09T07:34:04;96111.50;;;16.94;58.03
40596;BME280;26304;48.794;9.820;2022-11-09T07:39:46;96110.75;;;16.93;59.27
40596;BME280;26304;48.794;9.820;2022-11-09T07:45:29;96118.31;;;17.05;58.47
40596;BME280;26304;48.794;9.820;2022-11-09T07:51:14;96116.47;;;17.10;59.22
40596;BME280;26304;48.794;9.820;2022-11-09T07:56:56;96129.25;;;17.15;58.74
40596;BME280;26304;48.794;9.820;2022-11-09T08:02:38;96142.00;;;17.09;59.08
40596;BME280;26304;48.794;9.820;2022-11-09T08:08:22;96148.72;;;17.06;59.34
40596;BME280;26304;48.794;9.820;2022-11-09T08:14:05;96152.34;;;16.91;59.93
40596;BME280;26304;48.794;9.820;2022-11-09T08:19:47;96171.88;;;16.94;59.77
40596;BME280;26304;48.794;9.820;2022-11-09T08:25:32;96190.28;;;16.97;59.63
40596;BME280;26304;48.794;9.820;2022-11-09T08:31:14;96194.72;;;16.89;60.65
40596;BME280;26304;48.794;9.820;2022-11-09T08:36:58;96190.16;;;16.83;63.07
40596;BME280;26304;48.794;9.820;2022-11-09T08:42:42;96186.06;;;16.48;63.32
40596;BME280;26304;48.794;9.820;2022-11-09T08:48:25;96187.13;;;16.40;64.21
40596;BME280;26304;48.794;9.820;2022-11-09T08:54:07;96215.91;;;18.55;57.70
40596;BME280;26304;48.794;9.820;2022-11-09T08:59:52;96215.72;;;20.27;53.11
40596;BME280;26304;48.794;9.820;2022-11-09T09:05:35;96212.63;;;20.40;52.80
40596;BME280;26304;48.794;9.820;2022-11-09T09:11:17;96224.44;;;20.88;52.24
40596;BME280;26304;48.794;9.820;2022-11-09T09:17:01;96224.53;;;21.22;51.17
40596;BME280;26304;48.794;9.820;2022-11-09T09:22:44;96222.28;;;20.72;52.65
40596;BME280;26304;48.794;9.820;2022-11-09T09:28:26;96222.72;;;20.56;52.59
40596;BME280;26304;48.794;9.820;2022-11-09T09:34:10;96218.00;;;20.18;53.79
40596;BME280;26304;48.794;9.820;2022-11-09T09:39:53;96210.59;;;19.91;54.20
40596;BME280;26304;48.794;9.820;2022-11-09T09:45:50;96209.91;;;19.55;55.06
40596;BME280;26304;48.794;9.820;2022-11-09T09:51:38;96209.94;;;19.40;55.82
40596;BME280;26304;48.794;9.820;2022-11-09T09:57:23;96206.56;;;19.18;56.47
40596;BME280;26304;48.794;9.820;2022-11-09T10:03:14;96211.47;;;19.02;56.91
40596;BME280;26304;48.794;9.820;2022-11-09T10:09:04;96200.91;;;18.84;57.58
40596;BME280;26304;48.794;9.820;2022-11-09T10:15:01;96180.94;;;18.68;58.13
40596;BME280;26304;48.794;9.820;2022-11-09T10:20:58;96170.06;;;18.92;57.81
40596;BME280;26304;48.794;9.820;2022-11-09T10:26:47;96168.53;;;19.05;57.61
40596;BME280;26304;48.794;9.820;2022-11-09T10:32:31;96174.94;;;19.11;57.74
40596;BME280;26304;48.794;9.820;2022-11-09T10:38:17;96174.56;;;19.09;58.60
40596;BME280;26304;48.794;9.820;2022-11-09T10:44:03;96164.38;;;19.22;58.36
40596;BME280;26304;48.794;9.820;2022-11-09T10:49:45;96160.25;;;19.24;58.28
40596;BME280;26304;48.794;9.820;2022-11-09T10:55:28;96160.22;;;19.32;57.11
40596;BME280;26304;48.794;9.820;2022-11-09T11:01:14;96156.09;;;19.23;57.61
40596;BME280;26304;48.794;9.820;2022-11-09T11:06:57;96157.63;;;19.17;58.33
40596;BME280;26304;48.794;9.820;2022-11-09T11:13:17;96153.09;;;19.32;58.06
40596;BME280;26304;48.794;9.820;2022-11-09T11:19:03;96148.19;;;19.34;59.21
40596;BME280;26304;48.794;9.820;2022-11-09T11:24:51;96145.94;;;19.26;58.69
40596;BME280;26304;48.794;9.820;2022-11-09T11:30:35;96136.53;;;19.28;58.45
40596;BME280;26304;48.794;9.820;2022-11-09T11:36:28;96142.16;;;19.27;58.28
40596;BME280;26304;48.794;9.820;2022-11-09T11:42:24;96135.41;;;19.29;58.33
40596;BME280;26304;48.794;9.820;2022-11-09T11:48:24;96122.59;;;19.24;57.86
40596;BME280;26304;48.794;9.820;2022-11-09T11:54:19;96115.06;;;19.30;58.83
40596;BME280;26304;48.794;9.820;2022-11-09T12:00:10;96109.78;;;19.30;59.13
40596;BME280;26304;48.794;9.820;2022-11-09T12:12:18;96114.69;;;19.20;59.32
40596;BME280;26304;48.794;9.820;2022-11-09T12:18:12;96112.06;;;19.17;58.61
40596;BME280;26304;48.794;9.820;2022-11-09T12:24:07;96112.09;;;19.13;58.78
40596;BME280;26304;48.794;9.820;2022-11-09T12:30:00;96104.56;;;19.15;58.79
40596;BME280;26304;48.794;9.820;2022-11-09T12:35:49;96101.56;;;19.13;58.44
40596;BME280;26304;48.794;9.820;2022-11-09T12:41:36;96104.19;;;19.13;58.94
40596;BME280;26304;48.794;9.820;2022-11-09T12:47:23;96094.78;;;19.12;58.36
40596;BME280;26304;48.794;9.820;2022-11-09T12:53:07;96099.66;;;19.14;58.77
40596;BME280;26304;48.794;9.820;2022-11-09T12:58:50;96092.88;;;19.09;58.78
40596;BME280;26304;48.794;9.820;2022-11-09T13:04:34;96081.59;;;19.05;58.88
40596;BME280;26304;48.794;9.820;2022-11-09T13:10:25;96077.09;;;19.09;59.45
40596;BME280;26304;48.794;9.820;2022-11-09T13:16:11;96085.03;;;19.02;59.17
40596;BME280;26304;48.794;9.820;2022-11-09T13:21:55;96094.03;;;19.04;59.53
40596;BME280;26304;48.794;9.820;2022-11-09T13:27:41;96091.78;;;19.10;60.26
40596;BME280;26304;48.794;9.820;2022-11-09T13:33:24;96097.81;;;19.07;60.02
40596;BME280;26304;48.794;9.820;2022-11-09T13:39:31;96093.28;;;18.97;59.37
40596;BME280;26304;48.794;9.820;2022-11-09T13:45:32;96095.94;;;18.90;59.68
40596;BME280;26304;48.794;9.820;2022-11-09T13:51:18;96105.31;;;18.83;59.83
40596;BME280;26304;48.794;9.820;2022-11-09T13:57:05;96101.56;;;18.77;59.91
40596;BME280;26304;48.794;9.820;2022-11-09T14:02:52;96112.09;;;18.74;59.63
40596;BME280;26304;48.794;9.820;2022-11-09T14:08:35;96114.75;;;18.70;59.98
40596;BME280;26304;48.794;9.820;2022-11-09T14:14:45;96123.78;;;18.65;59.89
40596;BME280;26304;48.794;9.820;2022-11-09T14:20:38;96126.38;;;18.62;60.37
40596;BME280;26304;48.794;9.820;2022-11-09T14:26:24;96136.91;;;18.58;60.67
40596;BME280;26304;48.794;9.820;2022-11-09T14:32:22;96139.19;;;18.60;60.88
40596;BME280;26304;48.794;9.820;2022-11-09T14:38:15;96148.97;;;18.74;60.09
40596;BME280;26304;48.794;9.820;2022-11-09T14:43:59;96154.97;;;18.78;60.72
40596;BME280;26304;48.794;9.820;2022-11-09T14:49:43;96166.28;;;18.78;61.05
40596;BME280;26304;48.794;9.820;2022-11-09T14:55:27;96159.50;;;18.81;60.92
40596;BME280;26304;48.794;9.820;2022-11-09T15:01:19;96169.66;;;18.79;61.46
40596;BME280;26304;48.794;9.820;2022-11-09T15:07:05;96168.56;;;18.87;60.79
40596;BME280;26304;48.794;9.820;2022-11-09T15:12:49;96174.56;;;18.73;60.33
40596;BME280;26304;48.794;9.820;2022-11-09T15:18:34;96175.72;;;18.86;60.38
40596;BME280;26304;48.794;9.820;2022-11-09T15:24:19;96185.09;;;18.77;60.15
40596;BME280;26304;48.794;9.820;2022-11-09T15:30:02;96183.22;;;19.02;59.88
40596;BME280;26304;48.794;9.820;2022-11-09T15:35:48;96183.59;;;19.01;59.78
40596;BME280;26304;48.794;9.820;2022-11-09T15:41:32;96184.31;;;18.76;60.01
40596;BME280;26304;48.794;9.820;2022-11-09T15:47:20;96180.94;;;18.79;60.02
40596;BME280;26304;48.794;9.820;2022-11-09T15:53:03;96184.31;;;18.76;60.10
40596;BME280;26304;48.794;9.820;2022-11-09T15:58:47;96185.09;;;18.73;59.90
40596;BME280;26304;48.794;9.820;2022-11-09T16:04:29;96187.69;;;18.55;60.90
40596;BME280;26304;48.794;9.820;2022-11-09T16:10:12;96191.84;;;18.74;60.35
40596;BME280;26304;48.794;9.820;2022-11-09T16:16:02;96199.00;;;18.81;59.87
40596;BME280;26304;48.794;9.820;2022-11-09T16:21:45;96212.97;;;18.96;60.48
40596;BME280;26304;48.794;9.820;2022-11-09T16:27:27;96217.47;;;18.84;61.23
40596;BME280;26304;48.794;9.820;2022-11-09T16:33:11;96213.66;;;18.71;61.45
40596;BME280;26304;48.794;9.820;2022-11-09T16:38:54;96220.03;;;18.63;61.56
40596;BME280;26304;48.794;9.820;2022-11-09T16:44:39;96230.22;;;18.75;61.46
40596;BME280;26304;48.794;9.820;2022-11-09T16:50:24;96230.28;;;18.90;60.99
40596;BME280;26304;48.794;9.820;2022-11-09T16:56:06;96246.06;;;18.90;61.56
40596;BME280;26304;48.794;9.820;2022-11-09T17:01:51;96247.53;;;18.83;61.99
40596;BME280;26304;48.794;9.820;2022-11-09T17:07:35;96254.72;;;18.94;62.48
40596;BME280;26304;48.794;9.820;2022-11-09T17:13:20;96275.78;;;18.94;61.78
40596;BME280;26304;48.794;9.820;2022-11-09T17:19:03;96279.56;;;18.89;61.68
40596;BME280;26304;48.794;9.820;2022-11-09T17:24:47;96287.81;;;18.84;61.90
40596;BME280;26304;48.794;9.820;2022-11-09T17:30:30;96297.22;;;18.81;61.71
40596;BME280;26304;48.794;9.820;2022-11-09T17:36:15;96303.19;;;18.71;62.07
40596;BME280;26304;48.794;9.820;2022-11-09T17:41:59;96314.47;;;18.68;61.67
40596;BME280;26304;48.794;9.820;2022-11-09T17:47:42;96321.19;;;18.62;62.12
40596;BME280;26304;48.794;9.820;2022-11-09T17:53:24;96329.09;;;18.62;62.19
40596;BME280;26304;48.794;9.820;2022-11-09T17:59:08;96326.50;;;18.69;62.18
40596;BME280;26304;48.794;9.820;2022-11-09T18:04:51;96332.94;;;18.75;62.44
40596;BME280;26304;48.794;9.820;2022-11-09T18:10:33;96342.31;;;18.73;62.46
40596;BME280;26304;48.794;9.820;2022-11-09T18:16:18;96353.53;;;18.55;62.27
40596;BME280;26304;48.794;9.820;2022-11-09T18:22:01;96348.25;;;18.48;62.31
40596;BME280;26304;48.794;9.820;2022-11-09T18:27:45;96353.47;;;18.37;62.82
40596;BME280;26304;48.794;9.820;2022-11-09T18:33:33;96345.97;;;18.46;62.18
40596;BME280;26304;48.794;9.820;2022-11-09T18:39:18;96354.25;;;18.48;63.08
40596;BME280;26304;48.794;9.820;2022-11-09T18:45:07;96349.41;;;18.58;63.11
40596;BME280;26304;48.794;9.820;2022-11-09T18:51:00;96350.09;;;18.47;62.99
40596;BME280;26304;48.794;9.820;2022-11-09T18:56:43;96356.56;;;18.57;62.79
40596;BME280;26304;48.794;9.820;2022-11-09T19:02:26;96361.78;;;18.54;62.68
40596;BME280;26304;48.794;9.820;2022-11-09T19:08:14;96364.06;;;18.51;63.36
40596;BME280;26304;48.794;9.820;2022-11-09T19:13:57;96368.56;;;18.51;63.34
40596;BME280;26304;48.794;9.820;2022-11-09T19:19:42;96379.78;;;18.44;63.86
40596;BME280;26304;48.794;9.820;2022-11-09T19:25:26;96381.38;;;18.52;62.91
40596;BME280;26304;48.794;9.820;2022-11-09T19:31:10;96392.97;;;18.44;63.15
40596;BME280;26304;48.794;9.820;2022-11-09T19:36:57;96397.81;;;18.39;63.58
40596;BME280;26304;48.794;9.820;2022-11-09T19:42:44;96395.94;;;18.36;62.94
40596;BME280;26304;48.794;9.820;2022-11-09T19:48:29;96411.38;;;18.44;62.65
40596;BME280;26304;48.794;9.820;2022-11-09T19:54:17;96417.41;;;18.41;62.81
40596;BME280;26304;48.794;9.820;2022-11-09T20:00:00;96419.22;;;18.33;62.69
40596;BME280;26304;48.794;9.820;2022-11-09T20:05:43;96432.03;;;18.35;62.61
40596;BME280;26304;48.794;9.820;2022-11-09T20:11:27;96433.13;;;18.34;62.67
40596;BME280;26304;48.794;9.820;2022-11-09T20:17:30;96439.91;;;18.35;62.55
40596;BME280;26304;48.794;9.820;2022-11-09T20:23:15;96445.50;;;18.30;62.51
40596;BME280;26304;48.794;9.820;2022-11-09T20:28:57;96455.31;;;18.33;62.17
40596;BME280;26304;48.794;9.820;2022-11-09T20:34:41;96457.91;;;18.29;62.44
40596;BME280;26304;48.794;9.820;2022-11-09T20:40:23;96467.69;;;18.29;62.31
40596;BME280;26304;48.794;9.820;2022-11-09T20:46:14;96474.44;;;18.26;62.41
40596;BME280;26304;48.794;9.820;2022-11-09T20:51:58;96483.13;;;18.30;62.18
40596;BME280;26304;48.794;9.820;2022-11-09T20:57:43;96486.47;;;18.24;62.81
40596;BME280;26304;48.794;9.820;2022-11-09T21:03:29;96497.19;;;18.04;62.97
40596;BME280;26304;48.794;9.820;2022-11-09T21:09:13;96501.41;;;17.75;63.78
40596;BME280;26304;48.794;9.820;2022-11-09T21:14:58;96510.22;;;17.22;65.29
40596;BME280;26304;48.794;9.820;2022-11-09T21:20:40;96514.25;;;17.46;64.19
40596;BME280;26304;48.794;9.820;2022-11-09T21:26:27;96523.38;;;17.56;63.97
40596;BME280;26304;48.794;9.820;2022-11-09T21:32:28;96536.69;;;17.40;64.26
40596;BME280;26304;48.794;9.820;2022-11-09T21:38:15;96539.06;;;17.49;63.73
40596;BME280;26304;48.794;9.820;2022-11-09T21:44:02;96539.72;;;17.42;64.14
40596;BME280;26304;48.794;9.820;2022-11-09T21:49:49;96547.19;;;17.36;64.03
40596;BME280;26304;48.794;9.820;2022-11-09T21:55:34;96551.75;;;17.43;65.75
40596;BME280;26304;48.794;9.820;2022-11-09T22:01:20;96549.69;;;17.59;65.58
40596;BME280;26304;48.794;9.820;2022-11-09T22:07:05;96561.41;;;17.35;65.78
40596;BME280;26304;48.794;9.820;2022-11-09T22:12:54;96574.03;;;17.22;65.92
40596;BME280;26304;48.794;9.820;2022-11-09T22:18:55;96564.41;;;17.34;65.18
40596;BME280;26304;48.794;9.820;2022-11-09T22:24:58;96568.19;;;17.36;64.45
40596;BME280;26304;48.794;9.820;2022-11-09T22:30:42;96580.66;;;17.13;65.57
40596;BME280;26304;48.794;9.820;2022-11-09T22:36:26;96582.81;;;17.07;64.96
40596;BME280;26304;48.794;9.820;2022-11-09T22:42:17;96582.81;;;17.07;64.72
40596;BME280;26304;48.794;9.820;2022-11-09T22:47:59;96588.84;;;17.08;64.99
40596;BME280;26304;48.794;9.820;2022-11-09T22:53:46;96598.53;;;17.30;63.91
40596;BME280;26304;48.794;9.820;2022-11-09T22:59:30;96604.69;;;17.15;64.02
40596;BME280;26304;48.794;9.820;2022-11-09T23:05:17;96617.50;;;17.20;64.27
40596;BME280;26304;48.794;9.820;2022-11-09T23:11:00;96622.13;;;17.27;63.97
40596;BME280;26304;48.794;9.820;2022-11-09T23:16:44;96626.38;;;17.35;64.02
40596;BME280;26304;48.794;9.820;2022-11-09T23:22:27;96642.88;;;17.35;63.90
40596;BME280;26304;48.794;9.820;2022-11-09T23:28:14;96646.19;;;17.29;64.08
40596;BME280;26304;48.794;9.820;2022-11-09T23:33:59;96652.97;;;17.30;64.07
40596;BME280;26304;48.794;9.820;2022-11-09T23:39:42;96660.56;;;17.12;65.38
40596;BME280;26304;48.794;9.820;2022-11-09T23:45:31;96666.16;;;17.10;65.19
40596;BME280;26304;48.794;9.820;2022-11-09T23:51:20;96681.88;;;17.06;65.79
40596;BME280;26304;48.794;9.820;2022-11-09T23:57:04;96688.19;;;17.02;65.01
